createdAt,value
2018-08-25T00:00:03.210Z,48.80
2018-08-25T00:01:08.595Z,48.90
2018-08-25T00:02:14.019Z,48.70
2018-08-25T00:03:19.538Z,48.60
2018-08-25T00:04:27.212Z,48.30
2018-08-25T00:05:33.427Z,48.40
2018-08-25T00:06:38.999Z,48.30
2018-08-25T00:07:43.980Z,48.40
2018-08-25T00:08:48.872Z,48.60
2018-08-25T00:09:53.850Z,49.10
2018-08-25T00:10:58.814Z,48.80
2018-08-25T00:12:03.637Z,48.80
2018-08-25T00:13:10.736Z,49.00
2018-08-25T00:14:18.900Z,49.10
2018-08-25T00:15:25.079Z,49.10
2018-08-25T00:16:30.512Z,49.40
2018-08-25T00:17:37.654Z,49.20
2018-08-25T00:18:42.475Z,49.10
2018-08-25T00:19:48.694Z,49.10
2018-08-25T00:20:53.397Z,49.20
2018-08-25T00:21:59.175Z,49.20
2018-08-25T00:23:04.227Z,49.30
2018-08-25T00:24:09.183Z,49.30
2018-08-25T00:25:14.072Z,49.30
2018-08-25T00:26:18.827Z,49.10
2018-08-25T00:27:23.569Z,49.20
2018-08-25T00:28:28.656Z,49.30
2018-08-25T00:29:33.660Z,49.40
2018-08-25T00:30:43.814Z,49.40
2018-08-25T00:31:52.257Z,49.40
2018-08-25T00:32:57.601Z,49.40
2018-08-25T00:34:02.560Z,49.00
2018-08-25T00:35:07.460Z,48.80
2018-08-25T00:36:12.568Z,49.10
2018-08-25T00:37:17.401Z,49.00
2018-08-25T00:38:22.228Z,49.10
2018-08-25T00:39:28.385Z,49.30
2018-08-25T00:40:35.672Z,49.30
2018-08-25T00:41:40.492Z,49.30
2018-08-25T00:42:45.525Z,49.10
2018-08-25T00:43:51.095Z,49.10
2018-08-25T00:44:57.123Z,49.00
2018-08-25T00:46:01.979Z,48.80
2018-08-25T00:47:08.067Z,48.90
2018-08-25T00:48:15.777Z,48.90
2018-08-25T00:49:22.115Z,48.60
2018-08-25T00:50:27.012Z,48.80
2018-08-25T00:51:31.828Z,49.30
2018-08-25T00:52:36.789Z,48.70
2018-08-25T00:53:41.676Z,48.70
2018-08-25T00:54:47.166Z,48.70
2018-08-25T00:55:52.370Z,48.60
2018-08-25T00:57:00.550Z,48.80
2018-08-25T00:58:06.273Z,48.80
2018-08-25T00:59:11.065Z,48.60
2018-08-25T01:00:16.248Z,48.70
2018-08-25T01:01:21.299Z,48.60
2018-08-25T01:02:26.516Z,48.90
2018-08-25T01:03:31.455Z,48.90
2018-08-25T01:04:36.452Z,48.80
2018-08-25T01:05:44.783Z,49.00
2018-08-25T01:06:52.290Z,49.10
2018-08-25T01:07:57.801Z,49.00
2018-08-25T01:09:02.715Z,49.10
2018-08-25T01:10:07.593Z,49.00
2018-08-25T01:11:12.301Z,49.20
2018-08-25T01:12:17.631Z,49.20
2018-08-25T01:13:22.365Z,49.30
2018-08-25T01:14:28.005Z,49.40
2018-08-25T01:15:34.050Z,49.40
2018-08-25T01:16:39.192Z,49.50
2018-08-25T01:17:44.172Z,49.50
2018-08-25T01:18:49.007Z,49.60
2018-08-25T01:19:53.865Z,49.50
2018-08-25T01:20:58.815Z,49.70
2018-08-25T01:22:05.164Z,49.60
2018-08-25T01:23:10.212Z,49.60
2018-08-25T01:24:14.986Z,49.60
2018-08-25T01:25:20.998Z,49.60
2018-08-25T01:26:25.760Z,49.70
2018-08-25T01:27:30.553Z,49.70
2018-08-25T01:28:35.814Z,49.70
2018-08-25T01:29:40.876Z,49.70
2018-08-25T01:30:45.845Z,49.70
2018-08-25T01:31:50.622Z,49.80
2018-08-25T01:32:55.404Z,50.00
2018-08-25T01:34:01.444Z,50.00
2018-08-25T01:35:06.868Z,50.20
2018-08-25T01:36:11.899Z,50.10
2018-08-25T01:37:16.623Z,50.20
2018-08-25T01:38:21.845Z,50.30
2018-08-25T01:39:26.926Z,50.20
2018-08-25T01:40:31.807Z,50.20
2018-08-25T01:41:37.444Z,50.20
2018-08-25T01:42:42.308Z,50.20
2018-08-25T01:43:46.974Z,50.30
2018-08-25T01:44:51.874Z,50.20
2018-08-25T01:45:57.036Z,50.30
2018-08-25T01:47:01.975Z,50.20
2018-08-25T01:48:06.723Z,50.20
2018-08-25T01:49:11.782Z,50.30
2018-08-25T01:50:16.663Z,50.30
2018-08-25T01:51:21.376Z,50.20
2018-08-25T01:52:26.385Z,50.20
2018-08-25T01:53:31.106Z,50.30
2018-08-25T01:54:35.796Z,50.20
2018-08-25T01:55:40.902Z,50.50
2018-08-25T01:56:45.781Z,50.60
2018-08-25T01:57:50.505Z,50.80
2018-08-25T01:58:55.654Z,51.00
2018-08-25T02:00:00.382Z,51.10
2018-08-25T02:01:05.285Z,51.30
2018-08-25T02:02:10.245Z,51.40
2018-08-25T02:03:15.440Z,51.50
2018-08-25T02:04:20.130Z,51.40
2018-08-25T02:05:24.891Z,51.50
2018-08-25T02:06:30.065Z,51.50
2018-08-25T02:07:35.189Z,51.50
2018-08-25T02:08:40.374Z,51.60
2018-08-25T02:09:45.469Z,51.70
2018-08-25T02:10:50.342Z,51.70
2018-08-25T02:11:55.452Z,51.90
2018-08-25T02:13:00.491Z,52.00
2018-08-25T02:14:05.409Z,52.20
2018-08-25T02:15:10.105Z,52.30
2018-08-25T02:16:14.800Z,52.30
2018-08-25T02:17:19.537Z,52.30
2018-08-25T02:18:24.245Z,52.30
2018-08-25T02:19:28.954Z,52.20
2018-08-25T02:20:34.019Z,52.30
2018-08-25T02:21:38.937Z,52.30
2018-08-25T02:22:44.130Z,52.50
2018-08-25T02:23:48.963Z,52.50
2018-08-25T02:24:54.244Z,52.60
2018-08-25T02:25:58.913Z,52.80
2018-08-25T02:27:04.762Z,53.00
2018-08-25T02:28:09.487Z,53.20
2018-08-25T02:29:14.190Z,53.50
2018-08-25T02:30:18.914Z,53.60
2018-08-25T02:31:23.718Z,53.70
2018-08-25T02:32:28.748Z,53.80
2018-08-25T02:33:34.455Z,54.10
2018-08-25T02:34:39.303Z,54.10
2018-08-25T02:35:44.552Z,54.40
2018-08-25T02:36:50.225Z,54.40
2018-08-25T02:37:55.278Z,54.60
2018-08-25T02:39:00.305Z,54.80
2018-08-25T02:40:06.049Z,55.00
2018-08-25T02:41:11.525Z,55.20
2018-08-25T02:42:16.229Z,55.60
2018-08-25T02:43:21.473Z,56.20
2018-08-25T02:44:27.030Z,56.50
2018-08-25T02:45:31.752Z,56.20
2018-08-25T02:46:36.508Z,56.30
2018-08-25T02:47:41.333Z,57.10
2018-08-25T02:48:46.377Z,56.60
2018-08-25T02:49:52.114Z,57.80
2018-08-25T02:50:57.041Z,57.60
2018-08-25T02:52:02.541Z,58.20
2018-08-25T02:53:07.336Z,59.00
2018-08-25T02:54:12.110Z,60.30
2018-08-25T02:55:16.909Z,60.70
2018-08-25T02:56:22.015Z,60.70
2018-08-25T02:57:26.741Z,62.20
2018-08-25T02:58:31.935Z,62.70
2018-08-25T02:59:36.623Z,63.80
2018-08-25T03:00:41.523Z,63.30
2018-08-25T03:01:46.247Z,63.60
2018-08-25T03:02:51.061Z,63.70
2018-08-25T03:03:55.785Z,63.90
2018-08-25T03:05:01.433Z,65.20
2018-08-25T03:06:08.905Z,65.90
2018-08-25T03:07:13.888Z,67.30
2018-08-25T03:08:18.646Z,66.20
2018-08-25T03:09:23.673Z,66.70
2018-08-25T03:10:28.809Z,67.20
2018-08-25T03:11:33.700Z,68.40
2018-08-25T03:12:38.442Z,68.10
2018-08-25T03:13:43.373Z,68.80
2018-08-25T03:14:48.637Z,70.20
2018-08-25T03:15:54.848Z,70.10
2018-08-25T03:17:01.179Z,71.40
2018-08-25T03:18:05.926Z,71.90
2018-08-25T03:19:10.587Z,70.60
2018-08-25T03:20:15.624Z,71.40
2018-08-25T03:21:20.280Z,71.80
2018-08-25T03:22:24.920Z,71.60
2018-08-25T03:23:29.876Z,72.80
2018-08-25T03:24:35.671Z,73.80
2018-08-25T03:25:40.890Z,73.00
2018-08-25T03:26:45.824Z,76.30
2018-08-25T03:27:50.483Z,74.00
2018-08-25T03:28:55.568Z,74.40
2018-08-25T03:30:00.419Z,77.10
2018-08-25T03:31:05.936Z,75.20
2018-08-25T03:32:11.248Z,76.80
2018-08-25T03:33:16.428Z,77.10
2018-08-25T03:34:21.365Z,78.00
2018-08-25T03:35:26.236Z,77.50
2018-08-25T03:36:30.944Z,78.60
2018-08-25T03:37:35.644Z,80.40
2018-08-25T03:38:40.670Z,78.80
2018-08-25T03:39:45.333Z,78.50
2018-08-25T03:40:50.385Z,78.20
2018-08-25T03:41:55.553Z,79.20
2018-08-25T03:43:00.343Z,80.20
2018-08-25T03:44:05.066Z,80.10
2018-08-25T03:45:12.079Z,80.10
2018-08-25T03:46:19.954Z,80.50
2018-08-25T03:47:24.633Z,82.40
2018-08-25T03:48:30.298Z,81.90
2018-08-25T03:49:35.027Z,80.90
2018-08-25T03:50:39.888Z,81.70
2018-08-25T03:51:44.778Z,82.30
2018-08-25T03:52:49.530Z,82.10
2018-08-25T03:53:54.362Z,81.90
2018-08-25T03:54:59.359Z,81.60
2018-08-25T04:08:31.433Z,81.80
2018-08-25T04:09:36.451Z,86.40
2018-08-25T04:10:41.150Z,85.60
2018-08-25T04:11:45.794Z,85.80
2018-08-25T04:12:51.203Z,84.80
2018-08-25T04:13:56.348Z,86.10
2018-08-25T04:15:01.169Z,84.80
2018-08-25T04:16:06.009Z,84.80
2018-08-25T04:17:11.381Z,84.70
2018-08-25T04:18:16.391Z,84.60
2018-08-25T04:19:22.258Z,84.80
2018-08-25T04:20:27.013Z,85.50
2018-08-25T04:21:31.719Z,86.80
2018-08-25T04:22:36.441Z,86.00
2018-08-25T04:23:41.349Z,86.30
2018-08-25T04:24:46.115Z,86.40
2018-08-25T04:25:50.798Z,86.50
2018-08-25T04:26:55.618Z,86.70
2018-08-25T04:28:00.399Z,87.10
2018-08-25T04:29:05.121Z,86.80
2018-08-25T04:30:09.854Z,86.80
2018-08-25T04:31:14.556Z,87.10
2018-08-25T04:32:19.275Z,87.20
2018-08-25T04:33:24.262Z,86.90
2018-08-25T04:34:29.125Z,86.80
2018-08-25T04:35:33.896Z,87.80
2018-08-25T04:36:39.677Z,88.10
2018-08-25T04:37:44.386Z,88.00
2018-08-25T04:38:49.041Z,88.20
2018-08-25T04:39:53.947Z,87.90
2018-08-25T04:40:58.672Z,87.90
2018-08-25T04:42:03.464Z,89.00
2018-08-25T04:43:08.199Z,89.10
2018-08-25T04:44:13.445Z,88.50
2018-08-25T04:45:18.694Z,89.30
2018-08-25T04:46:23.429Z,90.00
2018-08-25T04:47:28.100Z,89.50
2018-08-25T04:48:33.150Z,89.50
2018-08-25T04:49:38.246Z,90.10
2018-08-25T04:50:43.304Z,90.20
2018-08-25T04:51:48.135Z,90.60
2018-08-25T04:52:53.706Z,90.80
2018-08-25T04:53:58.448Z,91.60
2018-08-25T04:55:03.368Z,91.10
2018-08-25T04:56:08.188Z,92.20
2018-08-25T04:57:14.061Z,91.50
2018-08-25T04:58:23.351Z,92.10
2018-08-25T04:59:28.065Z,92.00
2018-08-25T05:00:32.764Z,92.30
2018-08-25T05:01:37.710Z,93.00
2018-08-25T05:02:42.475Z,92.00
2018-08-25T05:03:47.511Z,91.20
2018-08-25T05:04:52.768Z,91.90
2018-08-25T05:05:57.530Z,91.50
2018-08-25T05:07:03.244Z,91.30
2018-08-25T05:08:08.921Z,91.60
2018-08-25T05:09:13.704Z,91.00
2018-08-25T05:10:18.888Z,92.00
2018-08-25T05:11:23.636Z,91.70
2018-08-25T05:12:28.300Z,92.20
2018-08-25T05:13:33.119Z,92.30
2018-08-25T05:14:37.844Z,91.90
2018-08-25T05:15:43.136Z,92.40
2018-08-25T05:16:47.901Z,92.10
2018-08-25T05:17:52.703Z,92.50
2018-08-25T05:18:57.544Z,92.20
2018-08-25T05:20:04.142Z,92.80
2018-08-25T05:21:09.138Z,92.60
2018-08-25T05:22:14.616Z,93.30
2018-08-25T05:23:20.128Z,92.50
2018-08-25T05:24:25.110Z,93.00
2018-08-25T05:25:29.882Z,92.60
2018-08-25T05:26:34.799Z,92.80
2018-08-25T05:27:40.313Z,92.50
2018-08-25T05:28:45.088Z,92.70
2018-08-25T05:29:49.862Z,92.50
2018-08-25T05:30:55.361Z,92.20
2018-08-25T05:32:00.599Z,92.50
2018-08-25T05:33:05.672Z,93.70
2018-08-25T05:34:10.605Z,92.70
2018-08-25T05:35:15.270Z,92.30
2018-08-25T05:36:20.133Z,92.20
2018-08-25T05:37:24.948Z,92.80
2018-08-25T05:38:29.773Z,93.00
2018-08-25T05:39:35.468Z,92.80
2018-08-25T05:40:40.309Z,92.30
2018-08-25T05:41:45.426Z,92.00
2018-08-25T05:42:50.256Z,92.10
2018-08-25T05:43:55.388Z,92.30
2018-08-25T05:45:00.360Z,92.40
2018-08-25T05:46:05.692Z,92.50
2018-08-25T05:47:11.169Z,92.30
2018-08-25T05:48:17.571Z,92.30
2018-08-25T05:49:22.377Z,92.40
2018-08-25T05:50:27.152Z,92.00
2018-08-25T05:51:31.873Z,92.70
2018-08-25T05:52:36.575Z,91.70
2018-08-25T05:53:41.458Z,92.30
2018-08-25T05:54:46.176Z,91.90
2018-08-25T05:55:50.976Z,91.50
2018-08-25T05:56:56.690Z,91.70
2018-08-25T05:58:01.511Z,91.20
2018-08-25T05:59:06.233Z,91.30
2018-08-25T06:00:11.281Z,90.70
2018-08-25T06:01:16.356Z,91.20
2018-08-25T06:02:21.072Z,91.10
2018-08-25T06:03:25.876Z,91.10
2018-08-25T06:04:30.662Z,91.60
2018-08-25T06:05:36.616Z,91.80
2018-08-25T06:06:42.380Z,91.40
2018-08-25T06:07:47.758Z,91.10
2018-08-25T06:08:52.936Z,90.40
2018-08-25T06:09:57.982Z,90.80
2018-08-25T06:11:02.969Z,90.90
2018-08-25T06:12:07.730Z,91.50
2018-08-25T06:13:14.335Z,91.20
2018-08-25T06:14:20.242Z,90.90
2018-08-25T06:15:25.359Z,90.90
2018-08-25T06:16:31.405Z,90.50
2018-08-25T06:17:36.534Z,90.10
2018-08-25T06:18:41.859Z,90.80
2018-08-25T06:19:47.098Z,91.50
2018-08-25T06:20:52.140Z,91.20
2018-08-25T06:21:56.944Z,90.70
2018-08-25T06:23:01.715Z,90.20
2018-08-25T06:24:06.463Z,90.20
2018-08-25T06:25:11.196Z,90.40
2018-08-25T06:26:16.014Z,90.60
2018-08-25T06:27:20.961Z,90.90
2018-08-25T06:28:25.969Z,90.70
2018-08-25T06:29:30.775Z,90.00
2018-08-25T06:30:36.215Z,90.50
2018-08-25T06:31:42.374Z,90.20
2018-08-25T06:32:47.463Z,90.10
2018-08-25T06:33:52.582Z,90.70
2018-08-25T06:34:57.432Z,91.10
2018-08-25T06:36:02.224Z,90.30
2018-08-25T06:37:07.483Z,90.20
2018-08-25T06:38:15.332Z,90.00
2018-08-25T06:39:22.330Z,89.60
2018-08-25T06:40:28.245Z,90.90
2018-08-25T06:41:33.609Z,90.20
2018-08-25T06:42:38.852Z,89.10
2018-08-25T06:43:44.071Z,88.80
2018-08-25T06:44:49.044Z,87.50
2018-08-25T06:45:59.156Z,88.30
2018-08-25T06:47:04.346Z,89.30
2018-08-25T06:48:09.078Z,90.10
2018-08-25T06:49:14.387Z,90.40
2018-08-25T06:50:19.422Z,88.90
2018-08-25T06:51:25.133Z,88.30
2018-08-25T06:52:31.093Z,87.70
2018-08-25T06:53:36.250Z,88.60
2018-08-25T06:54:41.140Z,87.70
2018-08-25T06:55:46.205Z,89.60
2018-08-25T06:56:52.363Z,88.10
2018-08-25T06:57:57.774Z,88.70
2018-08-25T06:59:02.931Z,87.70
2018-08-25T07:00:09.994Z,89.20
2018-08-25T07:01:14.853Z,88.70
2018-08-25T07:02:19.936Z,87.30
2018-08-25T07:03:24.641Z,88.00
2018-08-25T07:04:30.396Z,87.90
2018-08-25T07:05:35.138Z,87.70
2018-08-25T07:06:40.448Z,87.90
2018-08-25T07:07:45.295Z,87.50
2018-08-25T07:08:50.088Z,88.80
2018-08-25T07:09:54.860Z,88.30
2018-08-25T07:10:59.994Z,86.80
2018-08-25T07:12:05.192Z,86.60
2018-08-25T07:13:10.055Z,86.70
2018-08-25T07:14:15.457Z,86.50
2018-08-25T07:15:21.023Z,86.00
2018-08-25T07:16:25.822Z,85.10
2018-08-25T07:17:32.189Z,86.30
2018-08-25T07:18:38.791Z,87.30
2018-08-25T07:19:43.629Z,86.20
2018-08-25T07:20:48.529Z,84.90
2018-08-25T07:21:54.400Z,85.10
2018-08-25T07:23:00.387Z,84.30
2018-08-25T07:24:05.377Z,85.40
2018-08-25T07:25:10.296Z,85.80
2018-08-25T07:26:17.407Z,85.10
2018-08-25T07:27:25.397Z,85.00
2018-08-25T07:28:34.084Z,84.60
2018-08-25T07:29:39.530Z,84.50
2018-08-25T07:30:44.418Z,84.60
2018-08-25T07:31:49.256Z,83.90
2018-08-25T07:32:54.146Z,84.70
2018-08-25T07:33:59.346Z,84.90
2018-08-25T07:35:06.151Z,85.30
2018-08-25T07:36:10.948Z,84.20
2018-08-25T07:37:15.868Z,83.70
2018-08-25T07:38:21.017Z,84.50
2018-08-25T07:39:26.755Z,85.20
2018-08-25T07:40:31.612Z,85.70
2018-08-25T07:41:36.392Z,85.60
2018-08-25T07:42:41.237Z,85.90
2018-08-25T07:43:47.162Z,83.40
2018-08-25T07:44:52.404Z,83.10
2018-08-25T07:45:57.694Z,83.30
2018-08-25T07:47:03.913Z,84.50
2018-08-25T07:48:08.766Z,83.80
2018-08-25T07:49:15.369Z,84.30
2018-08-25T07:50:21.419Z,83.20
2018-08-25T07:51:26.317Z,81.00
2018-08-25T07:52:31.304Z,80.20
2018-08-25T07:53:36.337Z,80.20
2018-08-25T07:54:41.153Z,80.10
2018-08-25T07:55:45.985Z,80.20
2018-08-25T07:56:52.746Z,80.00
2018-08-25T07:57:58.204Z,80.00
2018-08-25T07:59:03.114Z,80.30
2018-08-25T08:00:08.347Z,79.80
2018-08-25T08:01:13.554Z,79.40
2018-08-25T08:02:19.082Z,78.00
2018-08-25T08:03:24.559Z,78.20
2018-08-25T08:04:29.492Z,79.10
2018-08-25T08:05:35.626Z,77.90
2018-08-25T08:06:41.659Z,76.80
2018-08-25T08:07:51.692Z,78.70
2018-08-25T08:09:01.265Z,79.00
2018-08-25T08:10:11.997Z,78.80
2018-08-25T08:11:18.371Z,79.30
2018-08-25T08:12:27.727Z,78.80
2018-08-25T08:13:35.301Z,78.20
2018-08-25T08:14:45.182Z,79.30
2018-08-25T08:15:51.711Z,78.10
2018-08-25T08:17:00.161Z,78.50
2018-08-25T08:18:07.601Z,77.70
2018-08-25T08:19:18.269Z,78.80
2018-08-25T08:20:24.755Z,78.80
2018-08-25T08:21:31.294Z,79.00
2018-08-25T08:22:38.397Z,79.30
2018-08-25T08:23:43.906Z,79.20
2018-08-25T08:24:53.288Z,78.90
2018-08-25T08:25:59.275Z,78.40
2018-08-25T08:27:08.106Z,77.90
2018-08-25T08:28:15.312Z,78.10
2018-08-25T08:29:21.994Z,78.50
2018-08-25T08:30:27.831Z,79.20
2018-08-25T08:31:37.896Z,79.30
2018-08-25T08:32:44.139Z,79.70
2018-08-25T08:33:49.715Z,77.90
2018-08-25T08:34:55.081Z,78.00
2018-08-25T08:36:01.061Z,77.90
2018-08-25T08:37:08.091Z,77.60
2018-08-25T08:38:20.588Z,77.60
2018-08-25T08:39:26.268Z,76.00
2018-08-25T08:40:42.527Z,76.00
2018-08-25T08:41:49.584Z,76.60
2018-08-25T08:42:55.557Z,76.80
2018-08-25T08:44:00.688Z,76.20
2018-08-25T08:45:06.856Z,75.80
2018-08-25T08:46:13.826Z,76.60
2018-08-25T08:47:20.928Z,75.90
2018-08-25T08:48:27.969Z,75.70
2018-08-25T08:49:33.142Z,76.10
2018-08-25T08:50:38.657Z,75.30
2018-08-25T08:51:43.628Z,75.30
2018-08-25T08:52:50.063Z,74.90
2018-08-25T08:53:55.578Z,73.70
2018-08-25T08:55:01.532Z,74.60
2018-08-25T08:56:08.081Z,73.70
2018-08-25T08:57:13.766Z,73.60
2018-08-25T08:58:20.099Z,72.60
2018-08-25T08:59:25.057Z,71.80
2018-08-25T09:00:30.062Z,71.60
2018-08-25T09:01:36.566Z,71.20
2018-08-25T09:02:42.710Z,70.70
2018-08-25T09:03:56.463Z,71.20
2018-08-25T09:05:04.089Z,71.40
2018-08-25T09:06:09.578Z,70.90
2018-08-25T09:07:15.245Z,71.30
2018-08-25T09:08:20.640Z,70.50
2018-08-25T09:09:26.241Z,69.40
2018-08-25T09:10:34.103Z,68.70
2018-08-25T09:11:41.563Z,69.50
2018-08-25T09:12:47.988Z,69.20
2018-08-25T09:13:57.782Z,66.50
2018-08-25T09:15:04.349Z,67.30
2018-08-25T09:16:10.401Z,66.40
2018-08-25T09:17:15.833Z,65.90
2018-08-25T09:18:21.733Z,65.50
2018-08-25T09:19:27.660Z,64.40
2018-08-25T09:20:35.482Z,64.10
2018-08-25T09:21:44.344Z,63.60
2018-08-25T09:22:50.212Z,64.70
2018-08-25T09:23:55.817Z,63.20
2018-08-25T09:25:05.391Z,64.20
2018-08-25T09:26:13.731Z,62.70
2018-08-25T09:27:22.191Z,62.80
2018-08-25T09:28:31.376Z,62.60
2018-08-25T09:29:37.017Z,62.50
2018-08-25T09:30:43.226Z,63.00
2018-08-25T09:31:59.921Z,63.20
2018-08-25T09:33:07.237Z,63.60
2018-08-25T09:34:14.799Z,63.10
2018-08-25T09:35:19.584Z,62.90
2018-08-25T09:36:31.113Z,62.90
2018-08-25T09:37:40.755Z,62.30
2018-08-25T09:38:48.638Z,62.10
2018-08-25T09:39:57.751Z,63.00
2018-08-25T09:41:04.440Z,62.70
2018-08-25T09:42:09.757Z,62.90
2018-08-25T09:43:16.171Z,64.10
2018-08-25T09:44:22.812Z,71.80
2018-08-25T09:45:30.360Z,75.80
2018-08-25T09:46:36.124Z,83.20
2018-08-25T09:47:41.253Z,79.10
2018-08-25T09:48:47.061Z,73.60
2018-08-25T09:49:52.342Z,71.90
2018-08-25T09:50:58.261Z,72.10
2018-08-25T09:52:05.616Z,71.50
2018-08-25T09:53:10.478Z,64.60
2018-08-25T09:54:16.223Z,62.90
2018-08-25T09:55:21.553Z,61.90
2018-08-25T09:56:26.429Z,61.60
2018-08-25T09:57:33.184Z,62.30
2018-08-25T09:58:38.308Z,63.70
2018-08-25T09:59:53.465Z,63.00
2018-08-25T10:01:04.438Z,63.10
2018-08-25T10:02:09.802Z,62.50
2018-08-25T10:03:14.880Z,62.10
2018-08-25T10:04:20.278Z,61.70
2018-08-25T10:05:25.075Z,61.40
2018-08-25T10:06:35.464Z,62.00
2018-08-25T10:07:40.896Z,61.20
2018-08-25T10:08:46.705Z,61.50
2018-08-25T10:09:52.087Z,61.90
2018-08-25T10:10:57.371Z,62.60
2018-08-25T10:12:03.093Z,61.60
2018-08-25T10:13:08.074Z,62.40
2018-08-25T10:14:14.090Z,59.90
2018-08-25T10:15:20.700Z,60.70
2018-08-25T10:16:25.531Z,59.80
2018-08-25T10:17:33.091Z,59.40
2018-08-25T10:18:38.252Z,59.80
2018-08-25T10:19:44.084Z,60.20
2018-08-25T10:20:50.270Z,60.20
2018-08-25T10:21:57.081Z,61.20
2018-08-25T10:23:03.369Z,61.40
2018-08-25T10:24:08.748Z,61.10
2018-08-25T10:25:13.781Z,60.30
2018-08-25T10:26:18.788Z,60.10
2018-08-25T10:27:24.206Z,59.60
2018-08-25T10:28:30.323Z,60.20
2018-08-25T10:29:35.529Z,59.60
2018-08-25T10:30:40.350Z,59.80
2018-08-25T10:31:45.407Z,59.30
2018-08-25T10:32:51.782Z,59.40
2018-08-25T10:33:57.083Z,59.60
2018-08-25T10:35:02.425Z,59.80
2018-08-25T10:36:07.838Z,60.00
2018-08-25T10:37:12.803Z,59.20
2018-08-25T10:38:18.588Z,59.30
2018-08-25T10:39:23.629Z,59.80
2018-08-25T10:40:28.718Z,60.10
2018-08-25T10:41:34.592Z,61.00
2018-08-25T10:42:39.851Z,60.90
2018-08-25T10:43:44.716Z,60.80
2018-08-25T10:44:50.927Z,60.50
